sensor_id;sensor_type;location;lat;lon;timestamp;P1;durP1;ratioP1;P2;durP2;ratioP2
12846;SDS011;6492;48.128;8.320;2022-08-11T07:30:09;3.75;;;2.90;;
12846;SDS011;6492;48.128;8.320;2022-08-11T07:34:14;3.67;;;2.90;;
12846;SDS011;6492;48.128;8.320;2022-08-11T07:38:20;3.95;;;2.40;;
12846;SDS011;6492;48.128;8.320;2022-08-11T07:42:42;3.17;;;2.97;;
12846;SDS011;6492;48.128;8.320;2022-08-11T07:46:47;3.05;;;2.75;;
12846;SDS011;6492;48.128;8.320;2022-08-11T07:51:22;3.92;;;3.28;;
12846;SDS011;6492;48.128;8.320;2022-08-11T07:55:42;3.20;;;2.90;;
12846;SDS011;6492;48.128;8.320;2022-08-11T07:59:44;4.22;;;2.85;;
12846;SDS011;6492;48.128;8.320;2022-08-11T08:04:05;3.53;;;3.22;;
12846;SDS011;6492;48.128;8.320;2022-08-11T08:08:26;3.10;;;2.80;;
12846;SDS011;6492;48.128;8.320;2022-08-11T08:12:45;5.32;;;2.97;;
12846;SDS011;6492;48.128;8.320;2022-08-11T08:17:04;3.40;;;3.08;;
12846;SDS011;6492;48.128;8.320;2022-08-11T08:21:27;2.83;;;2.60;;
12846;SDS011;6492;48.128;8.320;2022-08-11T08:25:31;4.25;;;3.50;;
12846;SDS011;6492;48.128;8.320;2022-08-11T08:29:35;3.22;;;2.92;;
12846;SDS011;6492;48.128;8.320;2022-08-11T08:33:55;4.95;;;3.00;;
12846;SDS011;6492;48.128;8.320;2022-08-11T08:37:59;3.40;;;3.20;;
12846;SDS011;6492;48.128;8.320;2022-08-11T08:42:03;3.47;;;3.03;;
12846;SDS011;6492;48.128;8.320;2022-08-11T08:46:10;4.70;;;3.22;;
12846;SDS011;6492;48.128;8.320;2022-08-11T08:50:14;3.40;;;3.10;;
12846;SDS011;6492;48.128;8.320;2022-08-11T08:54:21;3.17;;;2.83;;
12846;SDS011;6492;48.128;8.320;2022-08-11T08:58:26;4.57;;;3.20;;
12846;SDS011;6492;48.128;8.320;2022-08-11T09:02:29;3.55;;;3.22;;
12846;SDS011;6492;48.128;8.320;2022-08-11T09:06:33;3.70;;;3.03;;
12846;SDS011;6492;48.128;8.320;2022-08-11T09:10:40;3.60;;;3.30;;
12846;SDS011;6492;48.128;8.320;2022-08-11T09:14:42;4.00;;;3.00;;
12846;SDS011;6492;48.128;8.320;2022-08-11T09:19:03;4.30;;;3.03;;
12846;SDS011;6492;48.128;8.320;2022-08-11T09:23:07;3.45;;;2.80;;
12846;SDS011;6492;48.128;8.320;2022-08-11T09:27:28;3.70;;;3.08;;
12846;SDS011;6492;48.128;8.320;2022-08-11T09:31:31;3.55;;;2.78;;
12846;SDS011;6492;48.128;8.320;2022-08-11T09:35:34;5.15;;;3.00;;
12846;SDS011;6492;48.128;8.320;2022-08-11T09:39:38;5.05;;;3.13;;
12846;SDS011;6492;48.128;8.320;2022-08-11T09:44:15;2.90;;;2.70;;
12846;SDS011;6492;48.128;8.320;2022-08-11T09:48:36;3.20;;;2.80;;
12846;SDS011;6492;48.128;8.320;2022-08-11T09:52:40;4.05;;;2.40;;
12846;SDS011;6492;48.128;8.320;2022-08-11T09:56:44;2.85;;;2.53;;
12846;SDS011;6492;48.128;8.320;2022-08-11T10:01:05;4.28;;;2.55;;
12846;SDS011;6492;48.128;8.320;2022-08-11T10:05:25;2.72;;;2.45;;
12846;SDS011;6492;48.128;8.320;2022-08-11T10:09:48;2.60;;;2.40;;
12846;SDS011;6492;48.128;8.320;2022-08-11T10:13:52;4.00;;;2.60;;
12846;SDS011;6492;48.128;8.320;2022-08-11T10:18:16;2.95;;;2.70;;
12846;SDS011;6492;48.128;8.320;2022-08-11T10:22:37;4.40;;;2.53;;
12846;SDS011;6492;48.128;8.320;2022-08-11T10:26:58;3.55;;;2.63;;
12846;SDS011;6492;48.128;8.320;2022-08-11T10:31:02;3.53;;;2.30;;
12846;SDS011;6492;48.128;8.320;2022-08-11T10:35:24;2.42;;;2.25;;
12846;SDS011;6492;48.128;8.320;2022-08-11T10:39:26;4.43;;;2.20;;
12846;SDS011;6492;48.128;8.320;2022-08-11T10:43:29;2.63;;;2.22;;
12846;SDS011;6492;48.128;8.320;2022-08-11T10:47:30;2.58;;;2.38;;
12846;SDS011;6492;48.128;8.320;2022-08-11T10:51:37;3.33;;;2.58;;
12846;SDS011;6492;48.128;8.320;2022-08-11T10:55:56;2.67;;;2.35;;
12846;SDS011;6492;48.128;8.320;2022-08-11T11:00:16;2.55;;;2.35;;
12846;SDS011;6492;48.128;8.320;2022-08-11T11:04:20;2.55;;;2.38;;
12846;SDS011;6492;48.128;8.320;2022-08-11T11:08:29;2.80;;;2.47;;
12846;SDS011;6492;48.128;8.320;2022-08-11T11:12:52;2.70;;;2.50;;
12846;SDS011;6492;48.128;8.320;2022-08-11T11:17:14;2.72;;;2.53;;
12846;SDS011;6492;48.128;8.320;2022-08-11T11:21:35;3.47;;;2.63;;
12846;SDS011;6492;48.128;8.320;2022-08-11T11:25:49;3.08;;;2.30;;
12846;SDS011;6492;48.128;8.320;2022-08-11T11:30:13;3.05;;;2.50;;
12846;SDS011;6492;48.128;8.320;2022-08-11T11:34:25;2.30;;;2.10;;
12846;SDS011;6492;48.128;8.320;2022-08-11T11:38:41;2.35;;;2.20;;
12846;SDS011;6492;48.128;8.320;2022-08-11T11:42:44;2.60;;;2.40;;
12846;SDS011;6492;48.128;8.320;2022-08-11T11:46:47;2.70;;;2.50;;
12846;SDS011;6492;48.128;8.320;2022-08-11T11:50:50;3.50;;;2.40;;
12846;SDS011;6492;48.128;8.320;2022-08-11T11:54:54;2.60;;;2.40;;
12846;SDS011;6492;48.128;8.320;2022-08-11T11:58:58;3.17;;;2.50;;
12846;SDS011;6492;48.128;8.320;2022-08-11T12:03:18;2.03;;;1.90;;
12846;SDS011;6492;48.128;8.320;2022-08-11T12:07:21;2.83;;;2.20;;
12846;SDS011;6492;48.128;8.320;2022-08-11T12:11:41;2.72;;;2.10;;
12846;SDS011;6492;48.128;8.320;2022-08-11T12:16:02;2.50;;;2.30;;
12846;SDS011;6492;48.128;8.320;2022-08-11T12:20:05;2.95;;;2.10;;
12846;SDS011;6492;48.128;8.320;2022-08-11T12:24:08;2.33;;;2.13;;
12846;SDS011;6492;48.128;8.320;2022-08-11T12:28:28;2.88;;;2.50;;
12846;SDS011;6492;48.128;8.320;2022-08-11T12:32:34;3.38;;;2.33;;
12846;SDS011;6492;48.128;8.320;2022-08-11T12:36:38;3.45;;;3.15;;
12846;SDS011;6492;48.128;8.320;2022-08-11T12:40:41;2.40;;;2.20;;
12846;SDS011;6492;48.128;8.320;2022-08-11T12:45:01;2.50;;;2.30;;
12846;SDS011;6492;48.128;8.320;2022-08-11T12:49:27;2.85;;;2.30;;
12846;SDS011;6492;48.128;8.320;2022-08-11T12:53:53;3.42;;;2.35;;
12846;SDS011;6492;48.128;8.320;2022-08-11T12:57:59;2.35;;;2.15;;
12846;SDS011;6492;48.128;8.320;2022-08-11T13:02:20;2.53;;;2.33;;
12846;SDS011;6492;48.128;8.320;2022-08-11T13:06:41;2.50;;;2.30;;
12846;SDS011;6492;48.128;8.320;2022-08-11T13:10:43;2.17;;;2.03;;
12846;SDS011;6492;48.128;8.320;2022-08-11T13:15:04;2.50;;;2.30;;
12846;SDS011;6492;48.128;8.320;2022-08-11T13:19:07;2.70;;;2.50;;
12846;SDS011;6492;48.128;8.320;2022-08-11T13:23:11;2.63;;;2.40;;
12846;SDS011;6492;48.128;8.320;2022-08-11T13:27:14;2.47;;;1.90;;
12846;SDS011;6492;48.128;8.320;2022-08-11T13:31:18;2.70;;;2.50;;
12846;SDS011;6492;48.128;8.320;2022-08-11T13:35:20;3.22;;;2.13;;
12846;SDS011;6492;48.128;8.320;2022-08-11T13:39:25;3.10;;;2.30;;
12846;SDS011;6492;48.128;8.320;2022-08-11T13:43:29;2.50;;;2.30;;
12846;SDS011;6492;48.128;8.320;2022-08-11T13:47:31;2.72;;;2.20;;
12846;SDS011;6492;48.128;8.320;2022-08-11T13:51:35;2.58;;;2.20;;
12846;SDS011;6492;48.128;8.320;2022-08-11T13:55:40;2.40;;;2.20;;
12846;SDS011;6492;48.128;8.320;2022-08-11T13:59:43;3.20;;;2.90;;
12846;SDS011;6492;48.128;8.320;2022-08-11T14:03:46;2.58;;;2.33;;
12846;SDS011;6492;48.128;8.320;2022-08-11T14:07:50;3.50;;;3.20;;
12846;SDS011;6492;48.128;8.320;2022-08-11T14:11:55;2.75;;;2.55;;
12846;SDS011;6492;48.128;8.320;2022-08-11T14:16:19;2.65;;;2.45;;
12846;SDS011;6492;48.128;8.320;2022-08-11T14:20:26;2.70;;;2.50;;
12846;SDS011;6492;48.128;8.320;2022-08-11T14:24:50;4.57;;;3.00;;
12846;SDS011;6492;48.128;8.320;2022-08-11T14:28:55;3.42;;;2.60;;
12846;SDS011;6492;48.128;8.320;2022-08-11T14:33:01;3.20;;;2.60;;
12846;SDS011;6492;48.128;8.320;2022-08-11T14:37:04;3.85;;;2.63;;
12846;SDS011;6492;48.128;8.320;2022-08-11T14:41:11;3.08;;;2.78;;
12846;SDS011;6492;48.128;8.320;2022-08-11T14:45:31;2.58;;;2.38;;
12846;SDS011;6492;48.128;8.320;2022-08-11T14:49:52;2.88;;;2.50;;
12846;SDS011;6492;48.128;8.320;2022-08-11T14:53:55;2.75;;;2.55;;
12846;SDS011;6492;48.128;8.320;2022-08-11T14:58:21;2.80;;;2.58;;
12846;SDS011;6492;48.128;8.320;2022-08-11T15:02:26;3.03;;;2.75;;
12846;SDS011;6492;48.128;8.320;2022-08-11T15:06:47;2.83;;;2.63;;
12846;SDS011;6492;48.128;8.320;2022-08-11T15:10:49;3.15;;;2.70;;
12846;SDS011;6492;48.128;8.320;2022-08-11T15:14:52;2.90;;;2.70;;
12846;SDS011;6492;48.128;8.320;2022-08-11T15:19:14;3.20;;;2.90;;
12846;SDS011;6492;48.128;8.320;2022-08-11T15:23:20;4.03;;;2.80;;
12846;SDS011;6492;48.128;8.320;2022-08-11T15:27:39;2.85;;;2.65;;
12846;SDS011;6492;48.128;8.320;2022-08-11T15:32:00;4.80;;;2.72;;
12846;SDS011;6492;48.128;8.320;2022-08-11T15:36:22;3.13;;;2.53;;
12846;SDS011;6492;48.128;8.320;2022-08-11T15:40:43;4.03;;;2.95;;
12846;SDS011;6492;48.128;8.320;2022-08-11T15:45:03;4.00;;;2.75;;
12846;SDS011;6492;48.128;8.320;2022-08-11T15:49:28;3.67;;;2.80;;
12846;SDS011;6492;48.128;8.320;2022-08-11T15:53:38;3.67;;;3.10;;
12846;SDS011;6492;48.128;8.320;2022-08-11T15:57:42;2.60;;;2.47;;
12846;SDS011;6492;48.128;8.320;2022-08-11T16:02:05;3.03;;;2.83;;
12846;SDS011;6492;48.128;8.320;2022-08-11T16:06:25;3.08;;;2.80;;
12846;SDS011;6492;48.128;8.320;2022-08-11T16:10:29;4.80;;;3.33;;
12846;SDS011;6492;48.128;8.320;2022-08-11T16:14:35;3.20;;;2.85;;
12846;SDS011;6492;48.128;8.320;2022-08-11T16:18:58;3.15;;;2.85;;
12846;SDS011;6492;48.128;8.320;2022-08-11T16:23:04;3.28;;;2.42;;
12846;SDS011;6492;48.128;8.320;2022-08-11T16:27:10;3.13;;;2.83;;
12846;SDS011;6492;48.128;8.320;2022-08-11T16:31:13;3.92;;;3.38;;
12846;SDS011;6492;48.128;8.320;2022-08-11T16:35:16;3.22;;;3.03;;
12846;SDS011;6492;48.128;8.320;2022-08-11T16:39:37;3.00;;;2.80;;
12846;SDS011;6492;48.128;8.320;2022-08-11T16:43:42;3.65;;;2.80;;
12846;SDS011;6492;48.128;8.320;2022-08-11T16:48:17;4.80;;;3.03;;
12846;SDS011;6492;48.128;8.320;2022-08-11T16:52:19;3.75;;;2.88;;
12846;SDS011;6492;48.128;8.320;2022-08-11T16:56:24;3.10;;;2.90;;
12846;SDS011;6492;48.128;8.320;2022-08-11T17:00:31;4.03;;;3.08;;
12846;SDS011;6492;48.128;8.320;2022-08-11T17:04:35;3.72;;;2.90;;
12846;SDS011;6492;48.128;8.320;2022-08-11T17:08:58;3.42;;;3.00;;
12846;SDS011;6492;48.128;8.320;2022-08-11T17:13:22;3.55;;;3.03;;
12846;SDS011;6492;48.128;8.320;2022-08-11T17:17:32;3.47;;;3.25;;
12846;SDS011;6492;48.128;8.320;2022-08-11T17:21:37;5.35;;;2.75;;
12846;SDS011;6492;48.128;8.320;2022-08-11T17:26:01;3.20;;;2.90;;
12846;SDS011;6492;48.128;8.320;2022-08-11T17:30:03;4.47;;;3.10;;
12846;SDS011;6492;48.128;8.320;2022-08-11T17:34:09;4.20;;;3.80;;
12846;SDS011;6492;48.128;8.320;2022-08-11T17:38:30;3.17;;;2.88;;
12846;SDS011;6492;48.128;8.320;2022-08-11T17:42:33;3.35;;;3.00;;
12846;SDS011;6492;48.128;8.320;2022-08-11T17:46:56;6.55;;;3.33;;
12846;SDS011;6492;48.128;8.320;2022-08-11T17:51:17;3.67;;;2.80;;
12846;SDS011;6492;48.128;8.320;2022-08-11T17:55:35;4.43;;;2.90;;
12846;SDS011;6492;48.128;8.320;2022-08-11T17:59:56;3.53;;;2.90;;
12846;SDS011;6492;48.128;8.320;2022-08-11T18:04:01;3.58;;;2.70;;
12846;SDS011;6492;48.128;8.320;2022-08-11T18:08:07;4.30;;;2.70;;
12846;SDS011;6492;48.128;8.320;2022-08-11T18:12:28;3.95;;;3.10;;
12846;SDS011;6492;48.128;8.320;2022-08-11T18:16:47;5.45;;;4.95;;
12846;SDS011;6492;48.128;8.320;2022-08-11T18:21:07;4.28;;;3.90;;
12846;SDS011;6492;48.128;8.320;2022-08-11T18:25:30;4.13;;;3.80;;
12846;SDS011;6492;48.128;8.320;2022-08-11T18:29:51;4.55;;;3.85;;
12846;SDS011;6492;48.128;8.320;2022-08-11T18:34:12;4.15;;;3.75;;
12846;SDS011;6492;48.128;8.320;2022-08-11T18:38:35;3.40;;;2.83;;
12846;SDS011;6492;48.128;8.320;2022-08-11T18:42:59;2.78;;;2.50;;
12846;SDS011;6492;48.128;8.320;2022-08-11T18:47:27;2.45;;;2.25;;
12846;SDS011;6492;48.128;8.320;2022-08-11T18:51:51;3.35;;;2.92;;
12846;SDS011;6492;48.128;8.320;2022-08-11T18:56:13;3.08;;;2.55;;
